createdAt,value
2023-04-25T00:00:27.021Z,3.83
2023-04-25T00:05:51.784Z,3.23
2023-04-25T00:11:14.666Z,3.47
2023-04-25T00:16:41.727Z,3.27
2023-04-25T00:22:09.874Z,3.07
2023-04-25T00:27:33.722Z,2.90
2023-04-25T00:32:57.839Z,2.97
2023-04-25T00:38:25.707Z,3.20
2023-04-25T00:43:56.010Z,3.57
2023-04-25T00:49:22.755Z,3.30
2023-04-25T00:54:48.963Z,2.73
2023-04-25T01:00:40.750Z,3.00
2023-04-25T01:06:10.806Z,3.83
2023-04-25T01:11:37.755Z,3.47
2023-04-25T01:17:04.851Z,3.93
2023-04-25T01:22:32.818Z,3.20
2023-04-25T01:27:57.657Z,5.10
2023-04-25T01:33:24.952Z,3.63
2023-04-25T01:38:54.786Z,3.40
2023-04-25T01:44:20.720Z,4.13
2023-04-25T01:50:06.717Z,2.87
2023-04-25T01:55:31.763Z,2.93
2023-04-25T02:01:00.942Z,2.93
2023-04-25T02:06:30.710Z,3.20
2023-04-25T02:11:58.782Z,3.73
2023-04-25T02:17:41.899Z,3.47
2023-04-25T02:23:05.917Z,3.07
2023-04-25T02:28:30.766Z,3.10
2023-04-25T02:33:57.823Z,3.93
2023-04-25T02:39:20.982Z,4.77
2023-04-25T02:44:46.930Z,3.93
2023-04-25T02:50:12.152Z,3.40
2023-04-25T02:55:34.762Z,5.00
2023-04-25T03:00:59.900Z,4.90
2023-04-25T03:06:22.758Z,3.13
2023-04-25T03:11:47.739Z,3.13
2023-04-25T03:17:15.821Z,2.67
2023-04-25T03:22:40.771Z,2.50
2023-04-25T03:28:07.043Z,2.97
2023-04-25T03:33:31.816Z,3.00
2023-04-25T03:39:00.869Z,3.17
2023-04-25T03:44:24.925Z,3.43
2023-04-25T03:49:50.804Z,3.77
2023-04-25T03:55:14.950Z,2.03
2023-04-25T04:00:37.816Z,2.53
2023-04-25T04:06:02.804Z,2.03
2023-04-25T04:11:29.835Z,3.67
2023-04-25T04:16:53.815Z,2.83
2023-04-25T04:22:22.890Z,3.20
2023-04-25T04:27:49.914Z,3.47
2023-04-25T04:33:40.106Z,3.07
2023-04-25T04:39:36.101Z,1.67
2023-04-25T04:45:29.850Z,3.00
2023-04-25T04:51:00.786Z,1.87
2023-04-25T04:56:36.936Z,2.27
2023-04-25T05:02:21.048Z,2.77
2023-04-25T05:08:05.094Z,2.23
2023-04-25T05:14:04.979Z,1.67
2023-04-25T05:19:39.900Z,2.60
2023-04-25T05:25:08.041Z,2.37
2023-04-25T05:31:02.159Z,2.03
2023-04-25T05:36:35.927Z,3.23
2023-04-25T05:41:59.860Z,2.17
2023-04-25T05:47:46.958Z,2.50
2023-04-25T05:53:23.855Z,3.43
2023-04-25T05:58:49.963Z,2.77
2023-04-25T06:04:14.956Z,2.80
2023-04-25T06:09:37.861Z,2.97
2023-04-25T06:15:01.366Z,2.90
2023-04-25T06:20:25.886Z,2.07
2023-04-25T06:25:51.094Z,2.87
2023-04-25T06:31:15.998Z,3.17
2023-04-25T06:36:41.915Z,1.90
2023-04-25T06:42:05.948Z,3.47
2023-04-25T06:47:49.946Z,3.53
2023-04-25T06:53:16.012Z,2.40
2023-04-25T06:58:45.899Z,3.87
2023-04-25T07:04:21.202Z,1.97
2023-04-25T07:09:47.943Z,2.10
2023-04-25T07:15:13.920Z,2.60
2023-04-25T07:20:42.171Z,2.87
2023-04-25T07:26:16.162Z,3.00
2023-04-25T07:31:59.125Z,4.07
2023-04-25T07:37:26.039Z,2.70
2023-04-25T07:43:00.019Z,2.83
2023-04-25T07:48:30.993Z,2.53
2023-04-25T07:53:55.459Z,2.97
2023-04-25T07:59:21.999Z,2.57
2023-04-25T08:04:46.148Z,3.53
2023-04-25T08:10:10.033Z,2.43
2023-04-25T08:15:36.058Z,2.23
2023-04-25T08:21:02.104Z,2.10
2023-04-25T08:26:29.188Z,2.30
2023-04-25T08:32:01.084Z,2.37
2023-04-25T08:37:28.973Z,2.97
2023-04-25T08:43:02.986Z,2.47
2023-04-25T08:48:31.003Z,2.10
2023-04-25T08:54:00.715Z,2.60
2023-04-25T08:59:34.303Z,5.33
2023-04-25T09:05:02.000Z,1.97
2023-04-25T09:10:38.208Z,3.97
2023-04-25T09:16:05.466Z,1.60
2023-04-25T09:21:54.048Z,2.13
2023-04-25T09:27:19.016Z,2.47
2023-04-25T09:32:51.020Z,2.43
2023-04-25T09:38:20.971Z,2.30
2023-04-25T09:43:52.120Z,1.97
2023-04-25T09:49:22.082Z,2.00
2023-04-25T09:55:04.730Z,2.13
2023-04-25T10:00:32.970Z,1.73
2023-04-25T10:06:12.149Z,2.47
2023-04-25T10:11:40.998Z,2.67
2023-04-25T10:17:05.065Z,2.17
2023-04-25T10:22:41.269Z,1.83
2023-04-25T10:28:10.096Z,2.80
2023-04-25T10:33:44.166Z,3.53
2023-04-25T10:39:15.308Z,3.50
2023-04-25T10:45:03.956Z,1.30
2023-04-25T10:50:33.108Z,1.57
2023-04-25T10:56:21.023Z,4.03
2023-04-25T11:15:54.778Z,3.10
2023-04-25T11:21:45.532Z,1.90
2023-04-25T11:27:16.697Z,2.53
2023-04-25T11:32:24.276Z,3.27
2023-04-25T11:37:38.134Z,2.23
2023-04-25T11:42:46.620Z,4.20
2023-04-25T11:47:54.014Z,1.83
2023-04-25T11:52:59.613Z,2.37
2023-04-25T11:58:03.807Z,2.70
2023-04-25T12:03:12.012Z,2.93
2023-04-25T12:08:25.105Z,1.53
2023-04-25T12:13:29.932Z,2.97
2023-04-25T12:18:42.735Z,2.13
2023-04-25T12:23:48.782Z,5.57
2023-04-25T12:29:00.520Z,2.53
2023-04-25T12:34:04.437Z,3.37
2023-04-25T12:39:19.768Z,2.87
2023-04-25T12:44:27.103Z,2.53
2023-04-25T12:49:32.520Z,3.80
2023-04-25T12:54:38.774Z,2.27
2023-04-25T12:59:45.385Z,4.00
2023-04-25T13:04:52.655Z,4.30
2023-04-25T13:16:30.679Z,4.80
2023-04-25T13:21:35.089Z,2.63
2023-04-25T13:26:45.322Z,1.47
2023-04-25T13:32:18.988Z,2.33
2023-04-25T13:37:27.494Z,2.23
2023-04-25T13:42:34.111Z,1.17
2023-04-25T13:47:38.773Z,2.80
2023-04-25T13:52:46.214Z,2.87
2023-04-25T13:57:51.822Z,1.60
2023-04-25T14:02:56.896Z,2.30
2023-04-25T14:08:02.383Z,2.03
2023-04-25T14:13:08.839Z,1.20
2023-04-25T14:18:17.324Z,1.67
2023-04-25T14:23:29.152Z,2.27
2023-04-25T14:28:41.102Z,2.73
2023-04-25T14:33:58.505Z,2.73
2023-04-25T14:39:06.334Z,4.13
2023-04-25T14:44:10.028Z,3.43
2023-04-25T14:49:17.422Z,2.07
2023-04-25T14:54:26.750Z,4.87
2023-04-25T14:59:40.037Z,1.40
2023-04-25T15:04:45.724Z,1.20
2023-04-25T15:09:54.406Z,2.60
2023-04-25T15:15:02.846Z,1.60
2023-04-25T15:20:10.884Z,2.77
2023-04-25T15:25:23.521Z,2.13
2023-04-25T15:30:26.939Z,2.87
2023-04-25T15:35:41.305Z,3.53
2023-04-25T15:40:49.319Z,3.07
2023-04-25T15:45:55.938Z,1.47
2023-04-25T15:51:08.500Z,2.53
2023-04-25T15:56:14.673Z,1.33
2023-04-25T16:01:31.857Z,1.37
2023-04-25T16:07:15.498Z,1.40
2023-04-25T16:19:19.034Z,0.97
2023-04-25T16:31:37.806Z,1.83
2023-04-25T16:43:48.672Z,0.83
2023-04-25T16:49:41.519Z,2.43
2023-04-25T16:55:22.370Z,1.43
2023-04-25T17:00:38.288Z,1.57
2023-04-25T17:05:51.118Z,1.60
2023-04-25T17:11:13.484Z,1.37
2023-04-25T17:16:40.799Z,1.87
2023-04-25T17:21:45.266Z,1.07
2023-04-25T17:27:11.125Z,0.80
2023-04-25T17:32:17.478Z,1.57
2023-04-25T17:37:21.515Z,0.70
2023-04-25T17:42:25.178Z,1.03
2023-04-25T17:47:39.722Z,0.63
2023-04-25T17:53:07.954Z,1.40
2023-04-25T17:58:13.167Z,0.73
2023-04-25T18:03:18.577Z,1.63
2023-04-25T18:08:23.197Z,1.97
2023-04-25T18:13:27.331Z,1.63
2023-04-25T18:18:39.145Z,1.03
2023-04-25T18:23:42.685Z,1.97
2023-04-25T18:28:46.908Z,0.67
2023-04-25T18:33:52.230Z,0.70
2023-04-25T18:39:05.566Z,2.17
2023-04-25T18:44:24.064Z,0.73
2023-04-25T18:49:28.939Z,0.97
2023-04-25T18:54:32.963Z,2.23
2023-04-25T18:59:36.913Z,0.60
2023-04-25T19:04:42.112Z,1.23
2023-04-25T19:09:46.091Z,1.10
2023-04-25T19:14:50.585Z,1.57
2023-04-25T19:19:55.379Z,0.50
2023-04-25T19:25:09.953Z,0.70
2023-04-25T19:30:15.170Z,2.23
2023-04-25T19:35:33.082Z,0.70
2023-04-25T19:40:44.941Z,0.57
2023-04-25T19:45:48.805Z,0.93
2023-04-25T19:50:53.542Z,0.73
2023-04-25T19:56:58.003Z,1.80
2023-04-25T20:02:30.269Z,0.50
2023-04-25T20:07:35.662Z,0.97
2023-04-25T20:12:49.500Z,0.67
2023-04-25T20:17:59.494Z,0.60
2023-04-25T20:23:40.592Z,2.43
2023-04-25T20:28:52.347Z,1.30
2023-04-25T20:40:03.498Z,0.60
2023-04-25T20:45:14.085Z,1.20
2023-04-25T20:51:50.847Z,1.00
2023-04-25T20:57:16.065Z,1.23
2023-04-25T21:02:20.276Z,0.33
2023-04-25T21:07:25.537Z,0.67
2023-04-25T21:12:36.303Z,1.00
2023-04-25T21:17:42.118Z,0.60
2023-04-25T21:22:51.004Z,0.60
2023-04-25T21:28:00.399Z,0.80
2023-04-25T21:33:05.002Z,1.37
2023-04-25T21:38:08.721Z,0.70
2023-04-25T21:43:14.731Z,1.00
2023-04-25T21:48:23.915Z,1.53
2023-04-25T21:53:33.445Z,0.60
2023-04-25T21:58:40.769Z,0.67
2023-04-25T22:03:47.433Z,0.90
2023-04-25T22:08:51.391Z,0.40
2023-04-25T22:13:58.133Z,0.70
2023-04-25T22:19:09.622Z,0.87
2023-04-25T22:24:12.875Z,1.60
2023-04-25T22:29:18.296Z,1.50
2023-04-25T22:34:24.677Z,1.10
2023-04-25T22:39:28.362Z,1.40
2023-04-25T22:44:35.639Z,1.37
2023-04-25T22:49:41.357Z,0.60
2023-04-25T22:54:44.755Z,0.70
2023-04-25T22:59:49.698Z,0.60
2023-04-25T23:04:55.045Z,1.00
2023-04-25T23:09:59.069Z,0.80
2023-04-25T23:15:05.594Z,1.70
2023-04-25T23:20:12.598Z,0.70
2023-04-25T23:25:16.528Z,0.60
2023-04-25T23:30:22.759Z,0.80
2023-04-25T23:35:27.724Z,1.60
2023-04-25T23:40:33.986Z,1.20
2023-04-25T23:45:38.799Z,0.77
2023-04-25T23:50:42.427Z,0.87
2023-04-25T23:55:45.731Z,1.60
